sensor_id;sensor_type;location;lat;lon;timestamp;P1;durP1;ratioP1;P2;durP2;ratioP2
1831;SDS011;1680;48.106;11.708;2023-02-28T00:00:35;3.60;;;3.30;;
1831;SDS011;1680;48.106;11.708;2023-02-28T00:03:03;4.10;;;3.70;;
1831;SDS011;1680;48.106;11.708;2023-02-28T00:05:31;3.95;;;3.10;;
1831;SDS011;1680;48.106;11.708;2023-02-28T00:07:58;4.55;;;3.40;;
1831;SDS011;1680;48.106;11.708;2023-02-28T00:10:26;3.33;;;3.03;;
1831;SDS011;1680;48.106;11.708;2023-02-28T00:12:59;4.00;;;3.40;;
1831;SDS011;1680;48.106;11.708;2023-02-28T00:15:27;3.70;;;3.38;;
1831;SDS011;1680;48.106;11.708;2023-02-28T00:17:55;3.70;;;3.40;;
1831;SDS011;1680;48.106;11.708;2023-02-28T00:20:22;3.05;;;2.85;;
1831;SDS011;1680;48.106;11.708;2023-02-28T00:22:50;4.10;;;3.55;;
1831;SDS011;1680;48.106;11.708;2023-02-28T00:25:20;3.55;;;3.25;;
1831;SDS011;1680;48.106;11.708;2023-02-28T00:27:49;3.53;;;3.15;;
1831;SDS011;1680;48.106;11.708;2023-02-28T00:30:19;3.28;;;2.97;;
1831;SDS011;1680;48.106;11.708;2023-02-28T00:32:47;3.53;;;3.20;;
1831;SDS011;1680;48.106;11.708;2023-02-28T00:35:15;3.95;;;3.55;;
1831;SDS011;1680;48.106;11.708;2023-02-28T00:37:43;3.60;;;3.30;;
1831;SDS011;1680;48.106;11.708;2023-02-28T00:40:11;3.10;;;2.80;;
1831;SDS011;1680;48.106;11.708;2023-02-28T00:42:38;4.10;;;3.42;;
1831;SDS011;1680;48.106;11.708;2023-02-28T00:45:06;3.40;;;3.00;;
1831;SDS011;1680;48.106;11.708;2023-02-28T00:47:35;3.50;;;3.22;;
1831;SDS011;1680;48.106;11.708;2023-02-28T00:50:03;3.55;;;3.25;;
1831;SDS011;1680;48.106;11.708;2023-02-28T00:52:32;3.95;;;3.65;;
1831;SDS011;1680;48.106;11.708;2023-02-28T00:54:59;4.88;;;3.55;;
1831;SDS011;1680;48.106;11.708;2023-02-28T00:57:26;4.80;;;3.63;;
1831;SDS011;1680;48.106;11.708;2023-02-28T00:59:53;3.83;;;3.45;;
1831;SDS011;1680;48.106;11.708;2023-02-28T01:02:21;4.22;;;3.45;;
1831;SDS011;1680;48.106;11.708;2023-02-28T01:04:50;3.65;;;3.35;;
1831;SDS011;1680;48.106;11.708;2023-02-28T01:07:17;3.78;;;3.20;;
1831;SDS011;1680;48.106;11.708;2023-02-28T01:09:45;3.42;;;3.00;;
1831;SDS011;1680;48.106;11.708;2023-02-28T01:12:12;3.63;;;3.33;;
1831;SDS011;1680;48.106;11.708;2023-02-28T01:14:40;3.97;;;3.58;;
1831;SDS011;1680;48.106;11.708;2023-02-28T01:17:07;4.18;;;3.30;;
1831;SDS011;1680;48.106;11.708;2023-02-28T01:19:34;4.07;;;3.67;;
1831;SDS011;1680;48.106;11.708;2023-02-28T01:22:04;3.60;;;3.20;;
1831;SDS011;1680;48.106;11.708;2023-02-28T01:24:32;4.10;;;3.72;;
1831;SDS011;1680;48.106;11.708;2023-02-28T01:26:59;4.55;;;4.15;;
1831;SDS011;1680;48.106;11.708;2023-02-28T01:29:27;4.22;;;3.78;;
1831;SDS011;1680;48.106;11.708;2023-02-28T01:31:54;4.70;;;3.60;;
1831;SDS011;1680;48.106;11.708;2023-02-28T01:34:22;4.03;;;3.30;;
1831;SDS011;1680;48.106;11.708;2023-02-28T01:36:49;3.83;;;3.05;;
1831;SDS011;1680;48.106;11.708;2023-02-28T01:39:18;4.28;;;3.50;;
1831;SDS011;1680;48.106;11.708;2023-02-28T01:41:45;3.63;;;3.33;;
1831;SDS011;1680;48.106;11.708;2023-02-28T01:47:24;4.60;;;4.00;;
1831;SDS011;1680;48.106;11.708;2023-02-28T01:49:54;4.55;;;3.80;;
1831;SDS011;1680;48.106;11.708;2023-02-28T01:52:21;4.07;;;3.67;;
1831;SDS011;1680;48.106;11.708;2023-02-28T01:54:52;4.18;;;3.80;;
1831;SDS011;1680;48.106;11.708;2023-02-28T01:57:23;4.15;;;3.75;;
1831;SDS011;1680;48.106;11.708;2023-02-28T01:59:56;4.00;;;3.60;;
1831;SDS011;1680;48.106;11.708;2023-02-28T02:02:26;4.03;;;3.30;;
1831;SDS011;1680;48.106;11.708;2023-02-28T02:04:56;3.97;;;3.47;;
1831;SDS011;1680;48.106;11.708;2023-02-28T02:07:29;5.13;;;3.72;;
1831;SDS011;1680;48.106;11.708;2023-02-28T02:10:03;4.30;;;3.90;;
1831;SDS011;1680;48.106;11.708;2023-02-28T02:12:36;4.30;;;3.75;;
1831;SDS011;1680;48.106;11.708;2023-02-28T02:15:29;3.78;;;3.40;;
1831;SDS011;1680;48.106;11.708;2023-02-28T02:18:02;5.18;;;4.20;;
1831;SDS011;1680;48.106;11.708;2023-02-28T02:26:46;4.30;;;3.60;;
1831;SDS011;1680;48.106;11.708;2023-02-28T02:29:40;4.45;;;4.03;;
1831;SDS011;1680;48.106;11.708;2023-02-28T02:32:37;4.00;;;3.70;;
1831;SDS011;1680;48.106;11.708;2023-02-28T02:35:27;5.07;;;3.97;;
1831;SDS011;1680;48.106;11.708;2023-02-28T02:37:59;4.40;;;4.00;;
1831;SDS011;1680;48.106;11.708;2023-02-28T02:40:33;5.13;;;4.25;;
1831;SDS011;1680;48.106;11.708;2023-02-28T02:43:06;4.18;;;3.80;;
1831;SDS011;1680;48.106;11.708;2023-02-28T02:45:39;4.10;;;3.80;;
1831;SDS011;1680;48.106;11.708;2023-02-28T02:48:13;4.30;;;3.90;;
1831;SDS011;1680;48.106;11.708;2023-02-28T02:50:46;4.45;;;4.05;;
1831;SDS011;1680;48.106;11.708;2023-02-28T02:53:17;5.30;;;4.80;;
1831;SDS011;1680;48.106;11.708;2023-02-28T02:55:48;5.30;;;4.63;;
1831;SDS011;1680;48.106;11.708;2023-02-28T02:58:20;5.03;;;4.00;;
1831;SDS011;1680;48.106;11.708;2023-02-28T03:00:52;4.75;;;3.90;;
1831;SDS011;1680;48.106;11.708;2023-02-28T03:03:22;7.32;;;4.55;;
1831;SDS011;1680;48.106;11.708;2023-02-28T03:05:56;4.30;;;3.90;;
1831;SDS011;1680;48.106;11.708;2023-02-28T03:08:25;4.97;;;4.22;;
1831;SDS011;1680;48.106;11.708;2023-02-28T03:10:55;4.95;;;4.32;;
1831;SDS011;1680;48.106;11.708;2023-02-28T03:13:42;6.00;;;4.50;;
1831;SDS011;1680;48.106;11.708;2023-02-28T03:16:34;6.40;;;4.68;;
1831;SDS011;1680;48.106;11.708;2023-02-28T03:19:21;5.22;;;4.72;;
1831;SDS011;1680;48.106;11.708;2023-02-28T03:22:03;6.00;;;5.07;;
1831;SDS011;1680;48.106;11.708;2023-02-28T03:24:49;5.72;;;5.13;;
1831;SDS011;1680;48.106;11.708;2023-02-28T03:27:23;6.63;;;4.47;;
1831;SDS011;1680;48.106;11.708;2023-02-28T03:29:56;6.88;;;5.60;;
1831;SDS011;1680;48.106;11.708;2023-02-28T03:32:28;5.53;;;5.00;;
1831;SDS011;1680;48.106;11.708;2023-02-28T03:35:00;5.65;;;4.75;;
1831;SDS011;1680;48.106;11.708;2023-02-28T03:37:35;5.72;;;5.22;;
1831;SDS011;1680;48.106;11.708;2023-02-28T03:40:06;7.47;;;5.50;;
1831;SDS011;1680;48.106;11.708;2023-02-28T03:42:39;5.45;;;4.90;;
1831;SDS011;1680;48.106;11.708;2023-02-28T03:45:10;5.50;;;4.75;;
1831;SDS011;1680;48.106;11.708;2023-02-28T03:47:41;5.53;;;5.03;;
1831;SDS011;1680;48.106;11.708;2023-02-28T03:50:16;5.28;;;4.78;;
1831;SDS011;1680;48.106;11.708;2023-02-28T03:52:50;7.15;;;5.38;;
1831;SDS011;1680;48.106;11.708;2023-02-28T03:55:26;6.03;;;4.90;;
1831;SDS011;1680;48.106;11.708;2023-02-28T03:57:58;5.68;;;5.10;;
1831;SDS011;1680;48.106;11.708;2023-02-28T04:00:33;5.63;;;5.13;;
1831;SDS011;1680;48.106;11.708;2023-02-28T04:03:02;7.93;;;5.75;;
1831;SDS011;1680;48.106;11.708;2023-02-28T04:05:30;6.10;;;5.50;;
1831;SDS011;1680;48.106;11.708;2023-02-28T04:08:05;5.70;;;5.20;;
1831;SDS011;1680;48.106;11.708;2023-02-28T04:10:33;5.78;;;5.15;;
1831;SDS011;1680;48.106;11.708;2023-02-28T04:13:01;5.57;;;4.95;;
1831;SDS011;1680;48.106;11.708;2023-02-28T04:15:28;5.43;;;4.88;;
1831;SDS011;1680;48.106;11.708;2023-02-28T04:17:57;5.30;;;4.80;;
1831;SDS011;1680;48.106;11.708;2023-02-28T04:20:24;6.28;;;5.47;;
1831;SDS011;1680;48.106;11.708;2023-02-28T04:22:51;7.00;;;6.05;;
1831;SDS011;1680;48.106;11.708;2023-02-28T04:25:20;6.38;;;5.35;;
1831;SDS011;1680;48.106;11.708;2023-02-28T04:27:47;7.22;;;5.88;;
1831;SDS011;1680;48.106;11.708;2023-02-28T04:30:15;6.65;;;5.95;;
1831;SDS011;1680;48.106;11.708;2023-02-28T04:32:43;6.32;;;5.72;;
1831;SDS011;1680;48.106;11.708;2023-02-28T04:35:10;6.97;;;6.28;;
1831;SDS011;1680;48.106;11.708;2023-02-28T04:37:37;6.47;;;5.78;;
1831;SDS011;1680;48.106;11.708;2023-02-28T04:40:05;7.45;;;6.65;;
1831;SDS011;1680;48.106;11.708;2023-02-28T04:42:35;8.15;;;6.35;;
1831;SDS011;1680;48.106;11.708;2023-02-28T04:45:02;8.07;;;6.45;;
1831;SDS011;1680;48.106;11.708;2023-02-28T04:47:30;7.40;;;6.65;;
1831;SDS011;1680;48.106;11.708;2023-02-28T04:49:57;7.78;;;6.97;;
1831;SDS011;1680;48.106;11.708;2023-02-28T04:52:25;7.65;;;6.30;;
1831;SDS011;1680;48.106;11.708;2023-02-28T04:54:54;8.48;;;6.78;;
1831;SDS011;1680;48.106;11.708;2023-02-28T04:57:21;8.20;;;7.30;;
1831;SDS011;1680;48.106;11.708;2023-02-28T04:59:50;7.93;;;7.13;;
1831;SDS011;1680;48.106;11.708;2023-02-28T05:02:17;9.57;;;7.03;;
1831;SDS011;1680;48.106;11.708;2023-02-28T05:04:46;8.48;;;7.15;;
1831;SDS011;1680;48.106;11.708;2023-02-28T05:07:13;7.95;;;7.15;;
1831;SDS011;1680;48.106;11.708;2023-02-28T05:09:40;9.20;;;7.78;;
1831;SDS011;1680;48.106;11.708;2023-02-28T05:12:08;9.00;;;7.88;;
1831;SDS011;1680;48.106;11.708;2023-02-28T05:14:36;11.18;;;7.50;;
1831;SDS011;1680;48.106;11.708;2023-02-28T05:17:05;11.45;;;8.23;;
1831;SDS011;1680;48.106;11.708;2023-02-28T05:19:32;8.85;;;7.95;;
1831;SDS011;1680;48.106;11.708;2023-02-28T05:21:59;9.30;;;7.47;;
1831;SDS011;1680;48.106;11.708;2023-02-28T05:24:27;10.60;;;8.50;;
1831;SDS011;1680;48.106;11.708;2023-02-28T05:26:54;9.15;;;8.25;;
1831;SDS011;1680;48.106;11.708;2023-02-28T05:29:22;11.25;;;9.05;;
1831;SDS011;1680;48.106;11.708;2023-02-28T05:31:49;10.32;;;8.80;;
1831;SDS011;1680;48.106;11.708;2023-02-28T05:34:18;9.20;;;8.30;;
1831;SDS011;1680;48.106;11.708;2023-02-28T05:36:45;10.23;;;9.00;;
1831;SDS011;1680;48.106;11.708;2023-02-28T05:39:13;11.20;;;9.02;;
1831;SDS011;1680;48.106;11.708;2023-02-28T05:41:40;12.00;;;9.88;;
1831;SDS011;1680;48.106;11.708;2023-02-28T05:44:08;15.27;;;10.82;;
1831;SDS011;1680;48.106;11.708;2023-02-28T05:46:35;11.73;;;9.55;;
1831;SDS011;1680;48.106;11.708;2023-02-28T05:49:03;12.02;;;9.80;;
1831;SDS011;1680;48.106;11.708;2023-02-28T05:51:32;14.23;;;10.30;;
1831;SDS011;1680;48.106;11.708;2023-02-28T05:54:01;11.55;;;10.05;;
1831;SDS011;1680;48.106;11.708;2023-02-28T05:56:29;13.65;;;10.27;;
1831;SDS011;1680;48.106;11.708;2023-02-28T05:58:56;13.90;;;11.02;;
1831;SDS011;1680;48.106;11.708;2023-02-28T06:01:25;11.45;;;10.18;;
1831;SDS011;1680;48.106;11.708;2023-02-28T06:03:59;11.00;;;9.90;;
1831;SDS011;1680;48.106;11.708;2023-02-28T06:06:27;12.13;;;10.27;;
1831;SDS011;1680;48.106;11.708;2023-02-28T06:08:58;15.32;;;10.93;;
1831;SDS011;1680;48.106;11.708;2023-02-28T06:11:25;13.05;;;11.30;;
1831;SDS011;1680;48.106;11.708;2023-02-28T06:13:54;12.98;;;10.95;;
1831;SDS011;1680;48.106;11.708;2023-02-28T06:16:22;12.95;;;10.55;;
1831;SDS011;1680;48.106;11.708;2023-02-28T06:18:50;12.73;;;11.43;;
1831;SDS011;1680;48.106;11.708;2023-02-28T06:21:20;12.18;;;10.48;;
1831;SDS011;1680;48.106;11.708;2023-02-28T06:23:48;13.95;;;10.73;;
1831;SDS011;1680;48.106;11.708;2023-02-28T06:26:16;13.82;;;10.60;;
1831;SDS011;1680;48.106;11.708;2023-02-28T06:28:44;13.57;;;11.50;;
1831;SDS011;1680;48.106;11.708;2023-02-28T06:31:11;13.10;;;11.13;;
1831;SDS011;1680;48.106;11.708;2023-02-28T06:33:40;13.45;;;11.25;;
1831;SDS011;1680;48.106;11.708;2023-02-28T06:36:09;12.43;;;11.02;;
1831;SDS011;1680;48.106;11.708;2023-02-28T06:38:37;12.85;;;11.55;;
1831;SDS011;1680;48.106;11.708;2023-02-28T06:41:05;14.15;;;12.65;;
1831;SDS011;1680;48.106;11.708;2023-02-28T06:43:36;12.20;;;10.90;;
1831;SDS011;1680;48.106;11.708;2023-02-28T06:46:07;13.40;;;11.60;;
1831;SDS011;1680;48.106;11.708;2023-02-28T06:48:35;13.35;;;12.02;;
1831;SDS011;1680;48.106;11.708;2023-02-28T06:51:03;13.80;;;11.60;;
1831;SDS011;1680;48.106;11.708;2023-02-28T06:53:32;15.15;;;12.55;;
1831;SDS011;1680;48.106;11.708;2023-02-28T06:56:02;13.65;;;12.25;;
1831;SDS011;1680;48.106;11.708;2023-02-28T06:58:31;13.65;;;12.25;;
1831;SDS011;1680;48.106;11.708;2023-02-28T07:01:00;14.23;;;11.90;;
1831;SDS011;1680;48.106;11.708;2023-02-28T07:03:28;16.38;;;12.85;;
1831;SDS011;1680;48.106;11.708;2023-02-28T07:05:56;13.80;;;12.13;;
1831;SDS011;1680;48.106;11.708;2023-02-28T07:08:24;17.05;;;12.00;;
1831;SDS011;1680;48.106;11.708;2023-02-28T07:10:52;17.98;;;13.35;;
1831;SDS011;1680;48.106;11.708;2023-02-28T07:13:20;15.23;;;12.57;;
1831;SDS011;1680;48.106;11.708;2023-02-28T07:15:53;15.95;;;12.18;;
1831;SDS011;1680;48.106;11.708;2023-02-28T07:18:22;16.15;;;13.13;;
1831;SDS011;1680;48.106;11.708;2023-02-28T07:20:50;14.70;;;13.20;;
1831;SDS011;1680;48.106;11.708;2023-02-28T07:23:17;17.92;;;12.50;;
1831;SDS011;1680;48.106;11.708;2023-02-28T07:25:45;14.73;;;11.35;;
1831;SDS011;1680;48.106;11.708;2023-02-28T07:28:12;15.50;;;13.13;;
1831;SDS011;1680;48.106;11.708;2023-02-28T07:30:39;14.30;;;12.20;;
1831;SDS011;1680;48.106;11.708;2023-02-28T07:33:07;14.13;;;12.60;;
1831;SDS011;1680;48.106;11.708;2023-02-28T07:35:36;14.68;;;12.65;;
1831;SDS011;1680;48.106;11.708;2023-02-28T07:38:03;14.95;;;13.32;;
1831;SDS011;1680;48.106;11.708;2023-02-28T07:40:32;15.38;;;12.63;;
1831;SDS011;1680;48.106;11.708;2023-02-28T07:43:00;17.67;;;12.15;;
1831;SDS011;1680;48.106;11.708;2023-02-28T07:45:29;16.85;;;13.43;;
1831;SDS011;1680;48.106;11.708;2023-02-28T07:47:57;15.18;;;13.02;;
1831;SDS011;1680;48.106;11.708;2023-02-28T07:50:25;15.85;;;12.88;;
1831;SDS011;1680;48.106;11.708;2023-02-28T07:52:55;15.95;;;13.50;;
1831;SDS011;1680;48.106;11.708;2023-02-28T07:55:23;17.70;;;13.82;;
1831;SDS011;1680;48.106;11.708;2023-02-28T07:57:50;15.02;;;13.45;;
1831;SDS011;1680;48.106;11.708;2023-02-28T08:00:17;15.70;;;13.18;;
1831;SDS011;1680;48.106;11.708;2023-02-28T08:02:45;14.35;;;12.85;;
1831;SDS011;1680;48.106;11.708;2023-02-28T08:05:12;17.05;;;14.25;;
1831;SDS011;1680;48.106;11.708;2023-02-28T08:07:39;16.33;;;12.50;;
1831;SDS011;1680;48.106;11.708;2023-02-28T08:10:09;16.15;;;13.00;;
1831;SDS011;1680;48.106;11.708;2023-02-28T08:12:36;13.25;;;11.80;;
1831;SDS011;1680;48.106;11.708;2023-02-28T08:15:04;14.90;;;12.75;;
1831;SDS011;1680;48.106;11.708;2023-02-28T08:17:32;15.02;;;12.15;;
1831;SDS011;1680;48.106;11.708;2023-02-28T08:19:59;15.18;;;12.10;;
1831;SDS011;1680;48.106;11.708;2023-02-28T08:22:27;15.18;;;12.57;;
1831;SDS011;1680;48.106;11.708;2023-02-28T08:24:54;14.88;;;12.65;;
1831;SDS011;1680;48.106;11.708;2023-02-28T08:27:23;16.10;;;13.75;;
1831;SDS011;1680;48.106;11.708;2023-02-28T08:29:50;16.67;;;13.48;;
1831;SDS011;1680;48.106;11.708;2023-02-28T08:32:17;15.25;;;13.45;;
1831;SDS011;1680;48.106;11.708;2023-02-28T08:34:44;13.63;;;12.18;;
1831;SDS011;1680;48.106;11.708;2023-02-28T08:37:11;16.88;;;13.65;;
1831;SDS011;1680;48.106;11.708;2023-02-28T08:39:39;14.27;;;12.68;;
1831;SDS011;1680;48.106;11.708;2023-02-28T08:42:06;14.30;;;12.77;;
1831;SDS011;1680;48.106;11.708;2023-02-28T08:44:35;16.65;;;12.73;;
1831;SDS011;1680;48.106;11.708;2023-02-28T08:47:02;14.13;;;12.57;;
1831;SDS011;1680;48.106;11.708;2023-02-28T08:49:30;13.82;;;12.30;;
1831;SDS011;1680;48.106;11.708;2023-02-28T08:51:57;14.38;;;12.88;;
1831;SDS011;1680;48.106;11.708;2023-02-28T08:54:24;14.88;;;12.25;;
1831;SDS011;1680;48.106;11.708;2023-02-28T08:56:54;13.98;;;12.57;;
1831;SDS011;1680;48.106;11.708;2023-02-28T08:59:21;14.40;;;12.90;;
1831;SDS011;1680;48.106;11.708;2023-02-28T09:01:49;13.60;;;12.13;;
1831;SDS011;1680;48.106;11.708;2023-02-28T09:04:17;15.15;;;12.55;;
1831;SDS011;1680;48.106;11.708;2023-02-28T09:06:44;14.95;;;12.95;;
1831;SDS011;1680;48.106;11.708;2023-02-28T09:09:11;15.82;;;12.48;;
1831;SDS011;1680;48.106;11.708;2023-02-28T09:11:38;15.65;;;12.35;;
1831;SDS011;1680;48.106;11.708;2023-02-28T09:14:05;14.63;;;12.40;;
1831;SDS011;1680;48.106;11.708;2023-02-28T09:16:33;14.70;;;12.55;;
1831;SDS011;1680;48.106;11.708;2023-02-28T09:19:02;14.10;;;12.60;;
1831;SDS011;1680;48.106;11.708;2023-02-28T09:21:29;17.38;;;12.82;;
1831;SDS011;1680;48.106;11.708;2023-02-28T09:23:56;15.07;;;12.25;;
1831;SDS011;1680;48.106;11.708;2023-02-28T09:26:25;15.18;;;12.02;;
1831;SDS011;1680;48.106;11.708;2023-02-28T09:28:54;16.65;;;13.32;;
1831;SDS011;1680;48.106;11.708;2023-02-28T09:31:24;13.52;;;11.95;;
1831;SDS011;1680;48.106;11.708;2023-02-28T09:33:54;13.52;;;12.05;;
1831;SDS011;1680;48.106;11.708;2023-02-28T09:36:24;15.25;;;12.60;;
1831;SDS011;1680;48.106;11.708;2023-02-28T09:38:53;13.52;;;11.98;;
1831;SDS011;1680;48.106;11.708;2023-02-28T09:41:21;15.45;;;12.50;;
1831;SDS011;1680;48.106;11.708;2023-02-28T09:43:51;18.35;;;12.32;;
1831;SDS011;1680;48.106;11.708;2023-02-28T09:46:29;14.75;;;13.23;;
1831;SDS011;1680;48.106;11.708;2023-02-28T09:49:00;16.30;;;14.48;;
1831;SDS011;1680;48.106;11.708;2023-02-28T09:51:33;15.95;;;13.13;;
1831;SDS011;1680;48.106;11.708;2023-02-28T09:54:09;17.13;;;13.60;;
1831;SDS011;1680;48.106;11.708;2023-02-28T09:56:43;13.48;;;12.02;;
1831;SDS011;1680;48.106;11.708;2023-02-28T09:59:13;16.40;;;12.63;;
1831;SDS011;1680;48.106;11.708;2023-02-28T10:01:53;14.80;;;13.07;;
1831;SDS011;1680;48.106;11.708;2023-02-28T10:04:35;16.23;;;12.90;;
1831;SDS011;1680;48.106;11.708;2023-02-28T10:07:13;13.32;;;11.93;;
1831;SDS011;1680;48.106;11.708;2023-02-28T10:09:50;14.90;;;12.70;;
1831;SDS011;1680;48.106;11.708;2023-02-28T10:12:20;14.13;;;12.20;;
1831;SDS011;1680;48.106;11.708;2023-02-28T10:14:49;15.52;;;12.82;;
1831;SDS011;1680;48.106;11.708;2023-02-28T10:17:19;14.10;;;12.55;;
1831;SDS011;1680;48.106;11.708;2023-02-28T10:19:54;13.98;;;11.85;;
1831;SDS011;1680;48.106;11.708;2023-02-28T10:22:29;14.13;;;12.30;;
1831;SDS011;1680;48.106;11.708;2023-02-28T10:25:01;14.75;;;12.55;;
1831;SDS011;1680;48.106;11.708;2023-02-28T10:27:42;16.77;;;13.63;;
1831;SDS011;1680;48.106;11.708;2023-02-28T10:30:11;16.15;;;13.25;;
1831;SDS011;1680;48.106;11.708;2023-02-28T10:32:39;17.25;;;13.50;;
1831;SDS011;1680;48.106;11.708;2023-02-28T10:35:14;18.75;;;13.73;;
1831;SDS011;1680;48.106;11.708;2023-02-28T10:37:44;18.20;;;14.15;;
1831;SDS011;1680;48.106;11.708;2023-02-28T10:40:25;20.40;;;15.90;;
1831;SDS011;1680;48.106;11.708;2023-02-28T10:42:55;17.52;;;13.07;;
1831;SDS011;1680;48.106;11.708;2023-02-28T10:45:23;14.98;;;12.05;;
1831;SDS011;1680;48.106;11.708;2023-02-28T10:47:53;15.48;;;12.90;;
1831;SDS011;1680;48.106;11.708;2023-02-28T10:50:26;17.92;;;14.00;;
1831;SDS011;1680;48.106;11.708;2023-02-28T10:52:58;16.73;;;13.68;;
1831;SDS011;1680;48.106;11.708;2023-02-28T10:55:41;16.75;;;13.02;;
1831;SDS011;1680;48.106;11.708;2023-02-28T10:58:19;15.23;;;12.63;;
1831;SDS011;1680;48.106;11.708;2023-02-28T11:00:48;15.25;;;12.43;;
1831;SDS011;1680;48.106;11.708;2023-02-28T11:03:24;15.45;;;13.05;;
1831;SDS011;1680;48.106;11.708;2023-02-28T11:05:57;16.48;;;12.55;;
1831;SDS011;1680;48.106;11.708;2023-02-28T11:08:26;15.02;;;13.20;;
1831;SDS011;1680;48.106;11.708;2023-02-28T11:10:54;17.38;;;13.15;;
1831;SDS011;1680;48.106;11.708;2023-02-28T11:13:25;15.13;;;11.48;;
1831;SDS011;1680;48.106;11.708;2023-02-28T11:15:57;14.05;;;12.35;;
1831;SDS011;1680;48.106;11.708;2023-02-28T11:18:27;17.55;;;14.38;;
1831;SDS011;1680;48.106;11.708;2023-02-28T11:20:58;13.82;;;12.35;;
1831;SDS011;1680;48.106;11.708;2023-02-28T11:23:29;15.77;;;12.30;;
1831;SDS011;1680;48.106;11.708;2023-02-28T11:25:59;14.50;;;11.27;;
1831;SDS011;1680;48.106;11.708;2023-02-28T11:28:31;12.35;;;10.98;;
1831;SDS011;1680;48.106;11.708;2023-02-28T11:31:00;13.82;;;12.35;;
1831;SDS011;1680;48.106;11.708;2023-02-28T11:33:30;13.98;;;12.52;;
1831;SDS011;1680;48.106;11.708;2023-02-28T11:36:00;13.30;;;11.90;;
1831;SDS011;1680;48.106;11.708;2023-02-28T11:38:31;14.70;;;11.60;;
1831;SDS011;1680;48.106;11.708;2023-02-28T11:41:05;14.48;;;11.80;;
1831;SDS011;1680;48.106;11.708;2023-02-28T11:43:49;16.83;;;12.55;;
1831;SDS011;1680;48.106;11.708;2023-02-28T11:46:30;16.98;;;13.55;;
1831;SDS011;1680;48.106;11.708;2023-02-28T11:49:10;17.85;;;12.70;;
1831;SDS011;1680;48.106;11.708;2023-02-28T11:51:50;16.10;;;13.65;;
1831;SDS011;1680;48.106;11.708;2023-02-28T11:54:27;16.65;;;13.77;;
1831;SDS011;1680;48.106;11.708;2023-02-28T11:57:03;16.30;;;12.35;;
1831;SDS011;1680;48.106;11.708;2023-02-28T11:59:47;14.20;;;12.60;;
1831;SDS011;1680;48.106;11.708;2023-02-28T12:02:23;18.92;;;15.70;;
1831;SDS011;1680;48.106;11.708;2023-02-28T12:07:47;14.20;;;12.60;;
1831;SDS011;1680;48.106;11.708;2023-02-28T12:10:23;16.20;;;12.75;;
1831;SDS011;1680;48.106;11.708;2023-02-28T12:12:56;15.75;;;12.38;;
1831;SDS011;1680;48.106;11.708;2023-02-28T12:15:40;14.15;;;12.50;;
1831;SDS011;1680;48.106;11.708;2023-02-28T12:18:27;16.45;;;12.75;;
1831;SDS011;1680;48.106;11.708;2023-02-28T12:21:08;13.30;;;11.90;;
1831;SDS011;1680;48.106;11.708;2023-02-28T12:23:56;14.57;;;12.95;;
1831;SDS011;1680;48.106;11.708;2023-02-28T12:26:36;16.33;;;13.30;;
1831;SDS011;1680;48.106;11.708;2023-02-28T12:29:09;16.30;;;14.00;;
1831;SDS011;1680;48.106;11.708;2023-02-28T12:31:42;14.40;;;12.45;;
1831;SDS011;1680;48.106;11.708;2023-02-28T12:34:15;15.80;;;13.27;;
1831;SDS011;1680;48.106;11.708;2023-02-28T12:36:46;14.98;;;13.00;;
1831;SDS011;1680;48.106;11.708;2023-02-28T12:39:18;14.45;;;13.05;;
1831;SDS011;1680;48.106;11.708;2023-02-28T12:41:53;16.92;;;12.57;;
1831;SDS011;1680;48.106;11.708;2023-02-28T12:44:25;12.93;;;11.50;;
1831;SDS011;1680;48.106;11.708;2023-02-28T12:46:56;16.33;;;11.80;;
1831;SDS011;1680;48.106;11.708;2023-02-28T12:49:30;14.80;;;12.15;;
1831;SDS011;1680;48.106;11.708;2023-02-28T12:52:01;16.25;;;13.30;;
1831;SDS011;1680;48.106;11.708;2023-02-28T12:54:31;15.38;;;12.95;;
1831;SDS011;1680;48.106;11.708;2023-02-28T12:57:08;14.10;;;12.60;;
1831;SDS011;1680;48.106;11.708;2023-02-28T12:59:41;14.00;;;12.32;;
1831;SDS011;1680;48.106;11.708;2023-02-28T13:11:23;17.40;;;12.93;;
1831;SDS011;1680;48.106;11.708;2023-02-28T13:14:01;13.52;;;11.77;;
1831;SDS011;1680;48.106;11.708;2023-02-28T13:19:29;21.65;;;15.07;;
1831;SDS011;1680;48.106;11.708;2023-02-28T13:21:59;14.43;;;11.93;;
1831;SDS011;1680;48.106;11.708;2023-02-28T13:24:44;13.77;;;11.25;;
1831;SDS011;1680;48.106;11.708;2023-02-28T13:30:02;13.88;;;11.90;;
1831;SDS011;1680;48.106;11.708;2023-02-28T13:33:27;15.32;;;12.30;;
1831;SDS011;1680;48.106;11.708;2023-02-28T13:38:51;13.30;;;11.35;;
1831;SDS011;1680;48.106;11.708;2023-02-28T13:41:44;13.40;;;11.65;;
1831;SDS011;1680;48.106;11.708;2023-02-28T13:44:14;16.35;;;12.60;;
1831;SDS011;1680;48.106;11.708;2023-02-28T13:49:50;14.40;;;11.68;;
1831;SDS011;1680;48.106;11.708;2023-02-28T13:52:20;15.13;;;13.50;;
1831;SDS011;1680;48.106;11.708;2023-02-28T13:54:52;14.82;;;13.15;;
1831;SDS011;1680;48.106;11.708;2023-02-28T13:57:29;14.32;;;12.80;;
1831;SDS011;1680;48.106;11.708;2023-02-28T14:00:17;14.00;;;12.13;;
1831;SDS011;1680;48.106;11.708;2023-02-28T14:02:59;14.50;;;13.00;;
1831;SDS011;1680;48.106;11.708;2023-02-28T14:05:34;12.80;;;11.27;;
1831;SDS011;1680;48.106;11.708;2023-02-28T14:08:04;13.60;;;12.00;;
1831;SDS011;1680;48.106;11.708;2023-02-28T14:10:41;15.68;;;13.23;;
1831;SDS011;1680;48.106;11.708;2023-02-28T14:13:12;15.60;;;13.55;;
1831;SDS011;1680;48.106;11.708;2023-02-28T14:15:43;15.77;;;13.75;;
1831;SDS011;1680;48.106;11.708;2023-02-28T14:18:17;13.50;;;12.10;;
1831;SDS011;1680;48.106;11.708;2023-02-28T14:20:51;11.93;;;10.57;;
1831;SDS011;1680;48.106;11.708;2023-02-28T14:23:26;12.82;;;11.43;;
1831;SDS011;1680;48.106;11.708;2023-02-28T14:26:05;14.63;;;12.20;;
1831;SDS011;1680;48.106;11.708;2023-02-28T14:28:44;13.40;;;11.40;;
1831;SDS011;1680;48.106;11.708;2023-02-28T14:31:22;14.02;;;11.10;;
1831;SDS011;1680;48.106;11.708;2023-02-28T14:34:02;12.10;;;10.80;;
1831;SDS011;1680;48.106;11.708;2023-02-28T14:36:41;13.10;;;10.70;;
1831;SDS011;1680;48.106;11.708;2023-02-28T14:39:11;12.15;;;9.95;;
1831;SDS011;1680;48.106;11.708;2023-02-28T14:41:41;12.25;;;9.50;;
1831;SDS011;1680;48.106;11.708;2023-02-28T14:44:14;12.80;;;10.88;;
1831;SDS011;1680;48.106;11.708;2023-02-28T14:46:42;12.40;;;10.23;;
1831;SDS011;1680;48.106;11.708;2023-02-28T14:49:23;12.13;;;10.83;;
1831;SDS011;1680;48.106;11.708;2023-02-28T14:52:01;13.10;;;9.98;;
1831;SDS011;1680;48.106;11.708;2023-02-28T14:54:34;13.38;;;11.07;;
1831;SDS011;1680;48.106;11.708;2023-02-28T14:57:02;13.00;;;10.47;;
1831;SDS011;1680;48.106;11.708;2023-02-28T14:59:31;10.98;;;9.05;;
1831;SDS011;1680;48.106;11.708;2023-02-28T15:02:19;12.05;;;9.00;;
1831;SDS011;1680;48.106;11.708;2023-02-28T15:04:56;11.80;;;9.20;;
1831;SDS011;1680;48.106;11.708;2023-02-28T15:07:25;10.48;;;9.45;;
1831;SDS011;1680;48.106;11.708;2023-02-28T15:10:13;10.63;;;9.45;;
1831;SDS011;1680;48.106;11.708;2023-02-28T15:12:46;11.48;;;10.10;;
1831;SDS011;1680;48.106;11.708;2023-02-28T15:15:20;10.70;;;9.63;;
1831;SDS011;1680;48.106;11.708;2023-02-28T15:17:49;12.38;;;10.13;;
1831;SDS011;1680;48.106;11.708;2023-02-28T15:20:20;17.58;;;12.00;;
1831;SDS011;1680;48.106;11.708;2023-02-28T15:22:49;11.70;;;8.93;;
1831;SDS011;1680;48.106;11.708;2023-02-28T15:25:20;12.55;;;10.63;;
1831;SDS011;1680;48.106;11.708;2023-02-28T15:27:49;11.82;;;10.05;;
1831;SDS011;1680;48.106;11.708;2023-02-28T15:30:19;13.18;;;10.68;;
1831;SDS011;1680;48.106;11.708;2023-02-28T15:33:01;11.40;;;9.95;;
1831;SDS011;1680;48.106;11.708;2023-02-28T15:35:34;15.23;;;11.13;;
1831;SDS011;1680;48.106;11.708;2023-02-28T15:38:02;11.57;;;10.10;;
1831;SDS011;1680;48.106;11.708;2023-02-28T15:40:41;14.02;;;10.70;;
1831;SDS011;1680;48.106;11.708;2023-02-28T15:43:13;12.80;;;10.60;;